Odenton, Maryland
Current Conditions -  °F | °C
As of 4:39 AM on Sunday 23 Nov 2014 (Local Time) from KFME Reporting Station
Clear Clear  
Wind Chill: 39°   Ceiling: Unl
Heat Index: 39°   Visibility: 10mi
Dew Point: 19°   Wind: 0mph
Humidity: 45%   Direction: NA
Pressure: 30.23"   Gusts: NA
Location:  39.08°N, 76.69°W
Report Text: KFME 230939Z AUTO 00000KT 10SM CLR 04/M07 A3023 RMK AO1
Loading
Personal Weather Stations






























Interactive Weather Map New forecast layout! Learn more

10-Day Weather Forecast

Advertisements
Track Severe Weather on mobile